Terminal Aerodrome Forecast
Issued by NWS

Home | Current Version | Previous Version | Text Only | Print | Product List | Glossary On
Versions: 1 2 3 4 5 6 7 8 9 10 11 12 13 14 15 16 17 18 19 20 21 22 23 24 25 26 27 28 29 30 31 32 33 34 35 36 37 38 39 40 41 42 43 44 45 46 47 48
571
FTAK31 PANC 241139
TAFACV
TAF
PACV 241139Z 2412/2512 11011G18KT P6SM -SHRA OVC030
     FM241400 10012G20KT P6SM -RA OVC015 WS015/13035KT
     FM242200 12020G35KT 3SM RA BR BKN007 OVC015 WS020/13055KT
     FM250500 13012G22KT 5SM -RA BKN015 OVC022
     FM250900 15008KT P6SM -SHRA BKN030=

USA.gov is the U.S. government's official web portal to all federal, state and local government web resources and services.